sensor_id;sensor_type;location;lat;lon;timestamp;pressure;altitude;pressure_sealevel;temperature
70435;BMP280;57876;47.792;12.960;2022-08-03T00:00:31;97017.75;;;21.30
70435;BMP280;57876;47.792;12.960;2022-08-03T00:02:55;97023.41;;;21.32
70435;BMP280;57876;47.792;12.960;2022-08-03T00:05:19;97016.44;;;21.31
70435;BMP280;57876;47.792;12.960;2022-08-03T00:07:44;97012.97;;;21.31
70435;BMP280;57876;47.792;12.960;2022-08-03T00:10:08;97010.94;;;21.31
70435;BMP280;57876;47.792;12.960;2022-08-03T00:12:33;97010.94;;;21.31
70435;BMP280;57876;47.792;12.960;2022-08-03T00:14:59;97020.66;;;21.32
70435;BMP280;57876;47.792;12.960;2022-08-03T00:17:23;97018.47;;;21.31
70435;BMP280;57876;47.792;12.960;2022-08-03T00:19:48;97017.00;;;21.30
70435;BMP280;57876;47.792;12.960;2022-08-03T00:22:12;97023.25;;;21.30
70435;BMP280;57876;47.792;12.960;2022-08-03T00:24:36;97026.00;;;21.30
70435;BMP280;57876;47.792;12.960;2022-08-03T00:27:01;97025.28;;;21.30
70435;BMP280;57876;47.792;12.960;2022-08-03T00:29:25;97011.50;;;21.30
70435;BMP280;57876;47.792;12.960;2022-08-03T00:31:50;97015.59;;;21.29
70435;BMP280;57876;47.792;12.960;2022-08-03T00:34:14;97013.59;;;21.29
70435;BMP280;57876;47.792;12.960;2022-08-03T00:36:38;97012.25;;;21.30
70435;BMP280;57876;47.792;12.960;2022-08-03T00:39:03;97006.63;;;21.28
70435;BMP280;57876;47.792;12.960;2022-08-03T00:41:27;97006.63;;;21.28
70435;BMP280;57876;47.792;12.960;2022-08-03T00:43:52;97018.34;;;21.29
70435;BMP280;57876;47.792;12.960;2022-08-03T00:46:16;97003.88;;;21.28
70435;BMP280;57876;47.792;12.960;2022-08-03T00:48:40;97010.66;;;21.27
70435;BMP280;57876;47.792;12.960;2022-08-03T00:51:05;97007.19;;;21.27
70435;BMP280;57876;47.792;12.960;2022-08-03T00:53:31;97008.63;;;21.28
70435;BMP280;57876;47.792;12.960;2022-08-03T00:55:55;97013.41;;;21.27
70435;BMP280;57876;47.792;12.960;2022-08-03T00:58:20;97012.69;;;21.27
70435;BMP280;57876;47.792;12.960;2022-08-03T01:00:44;97017.47;;;21.26
70435;BMP280;57876;47.792;12.960;2022-08-03T01:03:09;97007.19;;;21.27
70435;BMP280;57876;47.792;12.960;2022-08-03T01:13:43;97019.50;;;21.26
70435;BMP280;57876;47.792;12.960;2022-08-03T01:16:16;97011.25;;;21.26
70435;BMP280;57876;47.792;12.960;2022-08-03T01:21:17;97009.84;;;21.25
70435;BMP280;57876;47.792;12.960;2022-08-03T01:31:46;97005.63;;;21.24
70435;BMP280;57876;47.792;12.960;2022-08-03T01:34:14;97004.91;;;21.23
70435;BMP280;57876;47.792;12.960;2022-08-03T01:36:48;97004.91;;;21.23
70435;BMP280;57876;47.792;12.960;2022-08-03T01:39:14;96996.63;;;21.23
70435;BMP280;57876;47.792;12.960;2022-08-03T01:41:48;96997.94;;;21.22
70435;BMP280;57876;47.792;12.960;2022-08-03T01:44:13;96997.25;;;21.22
70435;BMP280;57876;47.792;12.960;2022-08-03T01:46:39;96990.31;;;21.21
70435;BMP280;57876;47.792;12.960;2022-08-03T01:49:06;96985.50;;;21.21
70435;BMP280;57876;47.792;12.960;2022-08-03T01:51:32;96995.19;;;21.22
70435;BMP280;57876;47.792;12.960;2022-08-03T01:53:57;96992.44;;;21.22
70435;BMP280;57876;47.792;12.960;2022-08-03T01:56:24;96992.44;;;21.22
70435;BMP280;57876;47.792;12.960;2022-08-03T01:58:51;96989.00;;;21.22
70435;BMP280;57876;47.792;12.960;2022-08-03T02:01:19;96991.00;;;21.21
70435;BMP280;57876;47.792;12.960;2022-08-03T02:03:45;96989.00;;;21.22
70435;BMP280;57876;47.792;12.960;2022-08-03T02:06:11;96990.31;;;21.21
70435;BMP280;57876;47.792;12.960;2022-08-03T02:08:41;96984.81;;;21.21
70435;BMP280;57876;47.792;12.960;2022-08-03T02:11:06;96989.56;;;21.20
70435;BMP280;57876;47.792;12.960;2022-08-03T02:13:32;96984.06;;;21.20
70435;BMP280;57876;47.792;12.960;2022-08-03T02:15:57;96990.31;;;21.21
70435;BMP280;57876;47.792;12.960;2022-08-03T02:18:22;96988.25;;;21.21
70435;BMP280;57876;47.792;12.960;2022-08-03T02:20:48;96993.78;;;21.21
70435;BMP280;57876;47.792;12.960;2022-08-03T02:23:16;96993.06;;;21.21
70435;BMP280;57876;47.792;12.960;2022-08-03T02:25:46;96991.59;;;21.20
70435;BMP280;57876;47.792;12.960;2022-08-03T02:28:16;96991.59;;;21.20
70435;BMP280;57876;47.792;12.960;2022-08-03T02:30:42;96990.31;;;21.21
70435;BMP280;57876;47.792;12.960;2022-08-03T02:33:20;96995.81;;;21.21
70435;BMP280;57876;47.792;12.960;2022-08-03T02:35:48;96990.88;;;21.19
70435;BMP280;57876;47.792;12.960;2022-08-03T02:38:17;96983.94;;;21.18
70435;BMP280;57876;47.792;12.960;2022-08-03T02:40:43;96985.38;;;21.19
70435;BMP280;57876;47.792;12.960;2022-08-03T02:43:11;96984.06;;;21.20
70435;BMP280;57876;47.792;12.960;2022-08-03T02:45:41;96983.31;;;21.20
70435;BMP280;57876;47.792;12.960;2022-08-03T02:48:08;96983.31;;;21.20
70435;BMP280;57876;47.792;12.960;2022-08-03T02:50:33;96979.13;;;21.19
70435;BMP280;57876;47.792;12.960;2022-08-03T02:52:58;96971.63;;;21.19
70435;BMP280;57876;47.792;12.960;2022-08-03T02:55:25;96981.88;;;21.19
70435;BMP280;57876;47.792;12.960;2022-08-03T02:57:51;96972.91;;;21.18
70435;BMP280;57876;47.792;12.960;2022-08-03T03:00:16;96979.75;;;21.17
70435;BMP280;57876;47.792;12.960;2022-08-03T03:02:41;96985.94;;;21.18
70435;BMP280;57876;47.792;12.960;2022-08-03T03:05:07;96983.94;;;21.18
70435;BMP280;57876;47.792;12.960;2022-08-03T03:07:43;96979.13;;;21.19
70435;BMP280;57876;47.792;12.960;2022-08-03T03:10:17;96981.78;;;21.17
70435;BMP280;57876;47.792;12.960;2022-08-03T03:12:45;96981.06;;;21.16
70435;BMP280;57876;47.792;12.960;2022-08-03T03:15:38;96973.50;;;21.17
70435;BMP280;57876;47.792;12.960;2022-08-03T03:18:04;96985.25;;;21.17
70435;BMP280;57876;47.792;12.960;2022-08-03T03:20:30;96976.25;;;21.17
70435;BMP280;57876;47.792;12.960;2022-08-03T03:22:58;96981.06;;;21.16
70435;BMP280;57876;47.792;12.960;2022-08-03T03:25:23;96981.06;;;21.16
70435;BMP280;57876;47.792;12.960;2022-08-03T03:27:48;96985.81;;;21.16
70435;BMP280;57876;47.792;12.960;2022-08-03T03:30:13;96974.81;;;21.16
70435;BMP280;57876;47.792;12.960;2022-08-03T03:32:37;96978.31;;;21.16
70435;BMP280;57876;47.792;12.960;2022-08-03T03:35:03;96974.09;;;21.15
70435;BMP280;57876;47.792;12.960;2022-08-03T03:37:28;96985.81;;;21.16
70435;BMP280;57876;47.792;12.960;2022-08-03T03:39:53;96985.81;;;21.16
70435;BMP280;57876;47.792;12.960;2022-08-03T03:42:18;96989.16;;;21.14
70435;BMP280;57876;47.792;12.960;2022-08-03T03:44:43;96983.66;;;21.14
70435;BMP280;57876;47.792;12.960;2022-08-03T03:47:07;96983.66;;;21.14
70435;BMP280;57876;47.792;12.960;2022-08-03T03:49:32;96986.41;;;21.14
70435;BMP280;57876;47.792;12.960;2022-08-03T03:51:56;96985.00;;;21.13
70435;BMP280;57876;47.792;12.960;2022-08-03T03:54:21;96986.41;;;21.14
70435;BMP280;57876;47.792;12.960;2022-08-03T03:56:46;96989.16;;;21.14
70435;BMP280;57876;47.792;12.960;2022-08-03T03:59:10;96987.00;;;21.13
70435;BMP280;57876;47.792;12.960;2022-08-03T04:01:35;96990.50;;;21.13
70435;BMP280;57876;47.792;12.960;2022-08-03T04:03:59;96983.53;;;21.12
70435;BMP280;57876;47.792;12.960;2022-08-03T04:06:43;96985.72;;;21.14
70435;BMP280;57876;47.792;12.960;2022-08-03T04:09:27;96989.03;;;21.12
70435;BMP280;57876;47.792;12.960;2022-08-03T04:12:09;96988.88;;;21.10
70435;BMP280;57876;47.792;12.960;2022-08-03T04:14:34;97002.06;;;21.12
70435;BMP280;57876;47.792;12.960;2022-08-03T04:17:02;96998.59;;;21.11
70435;BMP280;57876;47.792;12.960;2022-08-03T04:19:41;96996.56;;;21.12
70435;BMP280;57876;47.792;12.960;2022-08-03T04:22:10;97009.59;;;21.11
70435;BMP280;57876;47.792;12.960;2022-08-03T04:24:48;96993.81;;;21.12
70435;BMP280;57876;47.792;12.960;2022-08-03T04:27:16;96998.59;;;21.11
70435;BMP280;57876;47.792;12.960;2022-08-03T04:29:45;97003.38;;;21.11
70435;BMP280;57876;47.792;12.960;2022-08-03T04:32:10;97014.38;;;21.11
70435;BMP280;57876;47.792;12.960;2022-08-03T04:34:34;97015.81;;;21.12
70435;BMP280;57876;47.792;12.960;2022-08-03T04:37:00;97012.34;;;21.11
70435;BMP280;57876;47.792;12.960;2022-08-03T04:39:29;97004.69;;;21.10
70435;BMP280;57876;47.792;12.960;2022-08-03T04:41:57;97010.31;;;21.12
70435;BMP280;57876;47.792;12.960;2022-08-03T04:44:23;97013.09;;;21.12
70435;BMP280;57876;47.792;12.960;2022-08-03T04:46:49;97008.13;;;21.10
70435;BMP280;57876;47.792;12.960;2022-08-03T04:49:14;97008.13;;;21.10
70435;BMP280;57876;47.792;12.960;2022-08-03T04:51:39;97001.34;;;21.11
70435;BMP280;57876;47.792;12.960;2022-08-03T04:54:03;97015.69;;;21.10
70435;BMP280;57876;47.792;12.960;2022-08-03T04:56:28;97011.63;;;21.11
70435;BMP280;57876;47.792;12.960;2022-08-03T04:58:52;97014.38;;;21.11
70435;BMP280;57876;47.792;12.960;2022-08-03T05:01:17;97010.31;;;21.12
70435;BMP280;57876;47.792;12.960;2022-08-03T05:03:43;97015.09;;;21.11
70435;BMP280;57876;47.792;12.960;2022-08-03T05:06:07;97001.34;;;21.11
70435;BMP280;57876;47.792;12.960;2022-08-03T05:08:33;97005.53;;;21.12
70435;BMP280;57876;47.792;12.960;2022-08-03T05:10:57;97015.81;;;21.12
70435;BMP280;57876;47.792;12.960;2022-08-03T05:13:22;97014.53;;;21.13
70435;BMP280;57876;47.792;12.960;2022-08-03T05:15:46;97011.78;;;21.13
70435;BMP280;57876;47.792;12.960;2022-08-03T05:18:13;97016.53;;;21.12
70435;BMP280;57876;47.792;12.960;2022-08-03T05:20:40;97004.09;;;21.11
70435;BMP280;57876;47.792;12.960;2022-08-03T05:26:21;97007.00;;;21.13
70435;BMP280;57876;47.792;12.960;2022-08-03T05:28:49;97007.00;;;21.13
70435;BMP280;57876;47.792;12.960;2022-08-03T05:31:18;97002.22;;;21.14
70435;BMP280;57876;47.792;12.960;2022-08-03T05:43:40;97009.88;;;21.15
70435;BMP280;57876;47.792;12.960;2022-08-03T05:49:39;97000.31;;;21.16
70435;BMP280;57876;47.792;12.960;2022-08-03T05:52:35;97002.34;;;21.16
70435;BMP280;57876;47.792;12.960;2022-08-03T05:56:00;97005.19;;;21.18
70435;BMP280;57876;47.792;12.960;2022-08-03T05:58:53;97001.16;;;21.19
70435;BMP280;57876;47.792;12.960;2022-08-03T06:01:29;97003.31;;;21.20
70435;BMP280;57876;47.792;12.960;2022-08-03T06:04:16;96998.41;;;21.19
70435;BMP280;57876;47.792;12.960;2022-08-03T06:06:46;97004.06;;;21.21
70435;BMP280;57876;47.792;12.960;2022-08-03T06:09:11;96998.56;;;21.21
70435;BMP280;57876;47.792;12.960;2022-08-03T06:11:36;96995.81;;;21.21
70435;BMP280;57876;47.792;12.960;2022-08-03T06:14:01;97004.06;;;21.21
70435;BMP280;57876;47.792;12.960;2022-08-03T06:16:25;96997.94;;;21.22
70435;BMP280;57876;47.792;12.960;2022-08-03T06:18:49;96997.25;;;21.22
70435;BMP280;57876;47.792;12.960;2022-08-03T06:21:14;97003.44;;;21.22
70435;BMP280;57876;47.792;12.960;2022-08-03T06:23:39;97008.94;;;21.22
70435;BMP280;57876;47.792;12.960;2022-08-03T06:26:05;96995.94;;;21.23
70435;BMP280;57876;47.792;12.960;2022-08-03T06:28:30;97012.44;;;21.23
70435;BMP280;57876;47.792;12.960;2022-08-03T06:30:54;97002.13;;;21.23
70435;BMP280;57876;47.792;12.960;2022-08-03T06:33:19;97004.31;;;21.25
70435;BMP280;57876;47.792;12.960;2022-08-03T06:35:43;97019.50;;;21.26
70435;BMP280;57876;47.792;12.960;2022-08-03T06:38:08;97005.75;;;21.26
70435;BMP280;57876;47.792;12.960;2022-08-03T06:40:34;97005.75;;;21.26
70435;BMP280;57876;47.792;12.960;2022-08-03T06:43:02;97012.69;;;21.27
70435;BMP280;57876;47.792;12.960;2022-08-03T06:45:30;97015.44;;;21.27
70435;BMP280;57876;47.792;12.960;2022-08-03T06:48:05;97016.16;;;21.27
70435;BMP280;57876;47.792;12.960;2022-08-03T06:50:34;97003.88;;;21.28
70435;BMP280;57876;47.792;12.960;2022-08-03T06:52:58;97007.34;;;21.29
70435;BMP280;57876;47.792;12.960;2022-08-03T06:55:26;97013.59;;;21.29
70435;BMP280;57876;47.792;12.960;2022-08-03T06:57:52;97004.69;;;21.31
70435;BMP280;57876;47.792;12.960;2022-08-03T07:00:17;97005.44;;;21.31
70435;BMP280;57876;47.792;12.960;2022-08-03T07:02:52;97008.19;;;21.31
70435;BMP280;57876;47.792;12.960;2022-08-03T07:05:16;97008.91;;;21.32
70435;BMP280;57876;47.792;12.960;2022-08-03T07:07:43;97006.16;;;21.32
70435;BMP280;57876;47.792;12.960;2022-08-03T07:10:18;97011.66;;;21.32
70435;BMP280;57876;47.792;12.960;2022-08-03T07:12:45;97009.63;;;21.32
70435;BMP280;57876;47.792;12.960;2022-08-03T07:15:14;97005.56;;;21.33
70435;BMP280;57876;47.792;12.960;2022-08-03T07:21:10;97003.50;;;21.34
70435;BMP280;57876;47.792;12.960;2022-08-03T07:23:56;96999.44;;;21.35
70435;BMP280;57876;47.792;12.960;2022-08-03T07:27:01;97005.69;;;21.35
70435;BMP280;57876;47.792;12.960;2022-08-03T07:29:46;96998.75;;;21.34
70435;BMP280;57876;47.792;12.960;2022-08-03T07:32:26;97002.94;;;21.35
70435;BMP280;57876;47.792;12.960;2022-08-03T07:35:14;96999.44;;;21.35
70435;BMP280;57876;47.792;12.960;2022-08-03T07:37:50;97003.69;;;21.36
70435;BMP280;57876;47.792;12.960;2022-08-03T07:40:15;96998.16;;;21.36
70435;BMP280;57876;47.792;12.960;2022-08-03T07:42:45;96992.06;;;21.37
70435;BMP280;57876;47.792;12.960;2022-08-03T07:45:17;96992.66;;;21.36
70435;BMP280;57876;47.792;12.960;2022-08-03T07:47:47;96983.69;;;21.35
70435;BMP280;57876;47.792;12.960;2022-08-03T07:50:17;96991.94;;;21.35
70435;BMP280;57876;47.792;12.960;2022-08-03T08:19:48;96994.94;;;21.39
70435;BMP280;57876;47.792;12.960;2022-08-03T08:25:42;96993.63;;;21.40
70435;BMP280;57876;47.792;12.960;2022-08-03T08:28:06;96988.88;;;21.40
70435;BMP280;57876;47.792;12.960;2022-08-03T08:30:32;96995.78;;;21.41
70435;BMP280;57876;47.792;12.960;2022-08-03T08:33:04;96986.38;;;21.44
70435;BMP280;57876;47.792;12.960;2022-08-03T08:35:29;96990.66;;;21.68
70435;BMP280;57876;47.792;12.960;2022-08-03T08:37:53;96987.38;;;21.81
70435;BMP280;57876;47.792;12.960;2022-08-03T08:40:21;96994.16;;;22.01
70435;BMP280;57876;47.792;12.960;2022-08-03T08:42:46;96990.31;;;22.06
70435;BMP280;57876;47.792;12.960;2022-08-03T08:45:10;96991.63;;;21.94
70435;BMP280;57876;47.792;12.960;2022-08-03T08:47:43;96991.47;;;21.92
70435;BMP280;57876;47.792;12.960;2022-08-03T08:50:08;97000.34;;;21.90
70435;BMP280;57876;47.792;12.960;2022-08-03T08:52:34;96989.91;;;21.89
70435;BMP280;57876;47.792;12.960;2022-08-03T08:55:03;96994.91;;;21.81
70435;BMP280;57876;47.792;12.960;2022-08-03T08:58:09;96988.31;;;21.74
70435;BMP280;57876;47.792;12.960;2022-08-03T09:03:11;96986.22;;;21.63
70435;BMP280;57876;47.792;12.960;2022-08-03T09:05:41;96986.06;;;21.61
70435;BMP280;57876;47.792;12.960;2022-08-03T09:08:06;96986.69;;;21.60
70435;BMP280;57876;47.792;12.960;2022-08-03T09:10:30;96985.09;;;21.57
70435;BMP280;57876;47.792;12.960;2022-08-03T09:12:55;96997.44;;;21.56
70435;BMP280;57876;47.792;12.960;2022-08-03T09:15:25;96987.00;;;21.54
70435;BMP280;57876;47.792;12.960;2022-08-03T09:23:50;96987.47;;;21.51
70435;BMP280;57876;47.792;12.960;2022-08-03T09:26:23;96980.53;;;21.50
70435;BMP280;57876;47.792;12.960;2022-08-03T09:28:55;96981.81;;;21.49
70435;BMP280;57876;47.792;12.960;2022-08-03T09:31:34;96981.13;;;21.48
70435;BMP280;57876;47.792;12.960;2022-08-03T09:34:05;96979.66;;;21.47
70435;BMP280;57876;47.792;12.960;2022-08-03T09:36:49;96978.38;;;21.48
70435;BMP280;57876;47.792;12.960;2022-08-03T09:39:15;96976.78;;;21.45
70435;BMP280;57876;47.792;12.960;2022-08-03T09:41:44;96972.59;;;21.44
70435;BMP280;57876;47.792;12.960;2022-08-03T09:44:08;96978.09;;;21.44
70435;BMP280;57876;47.792;12.960;2022-08-03T09:46:50;96967.09;;;21.44
70435;BMP280;57876;47.792;12.960;2022-08-03T09:49:16;96974.66;;;21.44
70435;BMP280;57876;47.792;12.960;2022-08-03T09:51:41;96963.47;;;21.42
70435;BMP280;57876;47.792;12.960;2022-08-03T09:54:06;96966.97;;;21.42
70435;BMP280;57876;47.792;12.960;2022-08-03T09:56:45;96962.19;;;21.43
70435;BMP280;57876;47.792;12.960;2022-08-03T09:59:10;96960.00;;;21.41
70435;BMP280;57876;47.792;12.960;2022-08-03T10:01:36;96956.69;;;21.43
70435;BMP280;57876;47.792;12.960;2022-08-03T10:04:02;96955.84;;;21.40
70435;BMP280;57876;47.792;12.960;2022-08-03T10:06:27;96957.25;;;21.41
70435;BMP280;57876;47.792;12.960;2022-08-03T10:09:10;96944.19;;;21.42
70435;BMP280;57876;47.792;12.960;2022-08-03T10:11:35;96942.75;;;21.41
70435;BMP280;57876;47.792;12.960;2022-08-03T10:14:04;96944.09;;;21.40
70435;BMP280;57876;47.792;12.960;2022-08-03T10:16:38;96943.38;;;21.39
70435;BMP280;57876;47.792;12.960;2022-08-03T10:19:05;96932.38;;;21.39
70435;BMP280;57876;47.792;12.960;2022-08-03T10:25:07;96931.63;;;21.39
70435;BMP280;57876;47.792;12.960;2022-08-03T10:27:40;96930.91;;;21.38
70435;BMP280;57876;47.792;12.960;2022-08-03T10:30:10;96932.38;;;21.39
70435;BMP280;57876;47.792;12.960;2022-08-03T10:33:06;96926.13;;;21.39
70435;BMP280;57876;47.792;12.960;2022-08-03T10:35:33;96925.41;;;21.38
70435;BMP280;57876;47.792;12.960;2022-08-03T10:38:02;96919.91;;;21.38
70435;BMP280;57876;47.792;12.960;2022-08-03T10:40:30;96920.63;;;21.39
70435;BMP280;57876;47.792;12.960;2022-08-03T10:43:07;96917.16;;;21.38
70435;BMP280;57876;47.792;12.960;2022-08-03T10:45:35;96913.66;;;21.38
70435;BMP280;57876;47.792;12.960;2022-08-03T10:48:03;96901.94;;;21.38
70435;BMP280;57876;47.792;12.960;2022-08-03T10:50:28;96910.22;;;21.38
70435;BMP280;57876;47.792;12.960;2022-08-03T10:53:03;96912.94;;;21.38
70435;BMP280;57876;47.792;12.960;2022-08-03T10:55:32;96914.41;;;21.38
70435;BMP280;57876;47.792;12.960;2022-08-03T11:01:00;96895.72;;;21.37
70435;BMP280;57876;47.792;12.960;2022-08-03T11:03:24;96890.94;;;21.38
70435;BMP280;57876;47.792;12.960;2022-08-03T11:05:49;96896.31;;;21.36
70435;BMP280;57876;47.792;12.960;2022-08-03T11:16:21;96886.75;;;21.37
70435;BMP280;57876;47.792;12.960;2022-08-03T11:19:00;96881.25;;;21.37
70435;BMP280;57876;47.792;12.960;2022-08-03T11:27:16;96898.34;;;21.35
70435;BMP280;57876;47.792;12.960;2022-08-03T11:30:02;96879.81;;;21.36
70435;BMP280;57876;47.792;12.960;2022-08-03T11:35:18;96879.06;;;21.35
70435;BMP280;57876;47.792;12.960;2022-08-03T11:38:03;96879.06;;;21.35
70435;BMP280;57876;47.792;12.960;2022-08-03T11:40:50;96873.56;;;21.35
70435;BMP280;57876;47.792;12.960;2022-08-03T11:48:20;96866.63;;;21.34
70435;BMP280;57876;47.792;12.960;2022-08-03T11:50:44;96871.38;;;21.34
70435;BMP280;57876;47.792;12.960;2022-08-03T11:53:13;96870.09;;;21.35
70435;BMP280;57876;47.792;12.960;2022-08-03T11:55:38;96875.59;;;21.35
70435;BMP280;57876;47.792;12.960;2022-08-03T11:58:05;96874.88;;;21.34
70435;BMP280;57876;47.792;12.960;2022-08-03T12:00:31;96871.38;;;21.34
70435;BMP280;57876;47.792;12.960;2022-08-03T12:02:57;96874.16;;;21.34
70435;BMP280;57876;47.792;12.960;2022-08-03T12:05:35;96854.88;;;21.34
70435;BMP280;57876;47.792;12.960;2022-08-03T12:08:00;96861.72;;;21.33
70435;BMP280;57876;47.792;12.960;2022-08-03T12:10:24;96857.41;;;21.41
70435;BMP280;57876;47.792;12.960;2022-08-03T12:13:26;96857.50;;;21.52
70435;BMP280;57876;47.792;12.960;2022-08-03T12:15:55;96853.06;;;21.59
70435;BMP280;57876;47.792;12.960;2022-08-03T12:18:58;96847.09;;;21.62
70435;BMP280;57876;47.792;12.960;2022-08-03T12:21:51;96844.84;;;21.70
70435;BMP280;57876;47.792;12.960;2022-08-03T12:24:45;96855.16;;;21.81
70435;BMP280;57876;47.792;12.960;2022-08-03T12:27:24;96842.94;;;21.84
70435;BMP280;57876;47.792;12.960;2022-08-03T12:36:54;96845.44;;;21.80
70435;BMP280;57876;47.792;12.960;2022-08-03T12:40:00;96850.13;;;21.89
70435;BMP280;57876;47.792;12.960;2022-08-03T12:42:32;96848.94;;;22.38
70435;BMP280;57876;47.792;12.960;2022-08-03T12:45:19;96845.53;;;22.73
70435;BMP280;57876;47.792;12.960;2022-08-03T12:47:57;96845.69;;;23.00
70435;BMP280;57876;47.792;12.960;2022-08-03T12:50:31;96844.25;;;23.24
70435;BMP280;57876;47.792;12.960;2022-08-03T12:52:57;96822.56;;;23.43
70435;BMP280;57876;47.792;12.960;2022-08-03T12:55:25;96826.13;;;23.08
70435;BMP280;57876;47.792;12.960;2022-08-03T12:57:59;96818.28;;;22.79
70435;BMP280;57876;47.792;12.960;2022-08-03T13:03:41;96820.97;;;22.43
70435;BMP280;57876;47.792;12.960;2022-08-03T13:06:15;96829.31;;;22.32
70435;BMP280;57876;47.792;12.960;2022-08-03T13:08:43;96828.09;;;22.23
70435;BMP280;57876;47.792;12.960;2022-08-03T13:11:27;96823.53;;;22.16
70435;BMP280;57876;47.792;12.960;2022-08-03T13:13:54;96815.66;;;22.11
70435;BMP280;57876;47.792;12.960;2022-08-03T13:16:20;96825.59;;;22.04
70435;BMP280;57876;47.792;12.960;2022-08-03T13:18:45;96817.69;;;21.99
70435;BMP280;57876;47.792;12.960;2022-08-03T13:21:20;96822.94;;;21.95
70435;BMP280;57876;47.792;12.960;2022-08-03T13:23:47;96815.88;;;21.92
70435;BMP280;57876;47.792;12.960;2022-08-03T13:26:16;96821.28;;;21.90
70435;BMP280;57876;47.792;12.960;2022-08-03T13:29:22;96818.28;;;21.86
70435;BMP280;57876;47.792;12.960;2022-08-03T13:31:46;96822.25;;;21.83
70435;BMP280;57876;47.792;12.960;2022-08-03T13:34:13;96820.06;;;21.82
70435;BMP280;57876;47.792;12.960;2022-08-03T13:36:49;96827.63;;;21.81
70435;BMP280;57876;47.792;12.960;2022-08-03T13:46:14;96823.03;;;21.74
70435;BMP280;57876;47.792;12.960;2022-08-03T13:48:52;96809.88;;;21.73
70435;BMP280;57876;47.792;12.960;2022-08-03T13:51:16;96807.00;;;21.71
70435;BMP280;57876;47.792;12.960;2022-08-03T13:53:52;96804.97;;;21.71
70435;BMP280;57876;47.792;12.960;2022-08-03T13:56:45;96795.84;;;21.69
70435;BMP280;57876;47.792;12.960;2022-08-03T13:59:16;96799.22;;;21.67
70435;BMP280;57876;47.792;12.960;2022-08-03T14:01:43;96800.53;;;21.66
70435;BMP280;57876;47.792;12.960;2022-08-03T14:04:10;96804.59;;;21.65
70435;BMP280;57876;47.792;12.960;2022-08-03T14:06:34;96798.34;;;21.65
70435;BMP280;57876;47.792;12.960;2022-08-03T14:09:10;96794.28;;;21.66
70435;BMP280;57876;47.792;12.960;2022-08-03T14:11:35;96791.44;;;21.64
70435;BMP280;57876;47.792;12.960;2022-08-03T14:17:38;96800.28;;;21.62
70435;BMP280;57876;47.792;12.960;2022-08-03T14:20:07;96793.31;;;21.61
70435;BMP280;57876;47.792;12.960;2022-08-03T14:25:47;96799.47;;;21.60
70435;BMP280;57876;47.792;12.960;2022-08-03T14:28:27;96792.50;;;21.59
70435;BMP280;57876;47.792;12.960;2022-08-03T14:51:21;96783.97;;;21.55
70435;BMP280;57876;47.792;12.960;2022-08-03T14:53:54;96782.53;;;21.54
70435;BMP280;57876;47.792;12.960;2022-08-03T14:56:18;96783.84;;;21.53
70435;BMP280;57876;47.792;12.960;2022-08-03T14:58:43;96785.28;;;21.54
70435;BMP280;57876;47.792;12.960;2022-08-03T15:01:08;96774.91;;;21.52
70435;BMP280;57876;47.792;12.960;2022-08-03T15:03:32;96776.31;;;21.53
70435;BMP280;57876;47.792;12.960;2022-08-03T15:06:00;96770.06;;;21.53
70435;BMP280;57876;47.792;12.960;2022-08-03T15:08:25;96781.81;;;21.53
70435;BMP280;57876;47.792;12.960;2022-08-03T15:10:50;96776.94;;;21.52
70435;BMP280;57876;47.792;12.960;2022-08-03T15:13:15;96771.41;;;21.52
70435;BMP280;57876;47.792;12.960;2022-08-03T15:15:40;96771.41;;;21.52
70435;BMP280;57876;47.792;12.960;2022-08-03T15:18:04;96766.66;;;21.52
70435;BMP280;57876;47.792;12.960;2022-08-03T15:20:29;96769.41;;;21.52
70435;BMP280;57876;47.792;12.960;2022-08-03T15:22:53;96766.66;;;21.52
70435;BMP280;57876;47.792;12.960;2022-08-03T15:25:17;96770.72;;;21.51
70435;BMP280;57876;47.792;12.960;2022-08-03T15:27:42;96766.50;;;21.50
70435;BMP280;57876;47.792;12.960;2022-08-03T15:30:06;96769.97;;;21.51
70435;BMP280;57876;47.792;12.960;2022-08-03T15:32:34;96769.25;;;21.50
70435;BMP280;57876;47.792;12.960;2022-08-03T15:34:59;96763.03;;;21.50
70435;BMP280;57876;47.792;12.960;2022-08-03T15:37:23;96768.53;;;21.50
70435;BMP280;57876;47.792;12.960;2022-08-03T15:39:48;96762.28;;;21.49
70435;BMP280;57876;47.792;12.960;2022-08-03T15:42:13;96769.25;;;21.50
70435;BMP280;57876;47.792;12.960;2022-08-03T15:44:37;96761.59;;;21.49
70435;BMP280;57876;47.792;12.960;2022-08-03T15:47:01;96756.06;;;21.49
70435;BMP280;57876;47.792;12.960;2022-08-03T15:49:26;96765.66;;;21.48
70435;BMP280;57876;47.792;12.960;2022-08-03T15:51:50;96758.81;;;21.49
70435;BMP280;57876;47.792;12.960;2022-08-03T15:54:14;96760.16;;;21.48
70435;BMP280;57876;47.792;12.960;2022-08-03T15:56:39;96767.09;;;21.49
70435;BMP280;57876;47.792;12.960;2022-08-03T15:59:08;96756.69;;;21.47
70435;BMP280;57876;47.792;12.960;2022-08-03T16:01:32;96749.72;;;21.46
70435;BMP280;57876;47.792;12.960;2022-08-03T16:03:57;96747.09;;;21.48
70435;BMP280;57876;47.792;12.960;2022-08-03T16:06:21;96753.56;;;21.53
70435;BMP280;57876;47.792;12.960;2022-08-03T16:08:46;96739.69;;;21.51
70435;BMP280;57876;47.792;12.960;2022-08-03T16:11:11;96749.84;;;21.48
70435;BMP280;57876;47.792;12.960;2022-08-03T16:13:35;96751.28;;;21.49
70435;BMP280;57876;47.792;12.960;2022-08-03T16:16:00;96745.66;;;21.47
70435;BMP280;57876;47.792;12.960;2022-08-03T16:18:26;96744.22;;;21.46
70435;BMP280;57876;47.792;12.960;2022-08-03T16:20:54;96741.47;;;21.46
70435;BMP280;57876;47.792;12.960;2022-08-03T16:23:18;96744.97;;;21.47
70435;BMP280;57876;47.792;12.960;2022-08-03T16:25:43;96743.50;;;21.46
70435;BMP280;57876;47.792;12.960;2022-08-03T16:28:08;96739.31;;;21.45
70435;BMP280;57876;47.792;12.960;2022-08-03T16:30:33;96740.75;;;21.46
70435;BMP280;57876;47.792;12.960;2022-08-03T16:32:57;96744.13;;;21.44
70435;BMP280;57876;47.792;12.960;2022-08-03T16:35:22;96739.31;;;21.45
70435;BMP280;57876;47.792;12.960;2022-08-03T16:37:47;96737.16;;;21.43